This is the latest recevied weather packets stored in our database for station/object HS6PNA-2. If no packets are shown the sender has not sent any weather packets the latest 1 day(s).
| Time | Temp. | Humidity | Pressure | Rain* | Wind** | Luminosity | Snow |
|---|---|---|---|---|---|---|---|
| 1778106451 | 33.33° C | 50% | 1003 hPa | - | - | 0 W/m² | - |
| 1778104602 | 33.33° C | 49% | 1002 hPa | - | - | 0 W/m² | - |
| 1778102753 | 33.33° C | 48% | 1002 hPa | - | - | 0 W/m² | - |
| 1778101828 | 33.33° C | 49% | 1002 hPa | - | - | 0 W/m² | - |
| 1778099978 | 33.33° C | 48% | 1002 hPa | - | - | 0 W/m² | - |
| 1778099053 | 33.33° C | 47% | 1002 hPa | - | - | 0 W/m² | - |
| 1778097204 | 33.89° C | 46% | 1002 hPa | - | - | 0 W/m² | - |
| 1778096279 | 33.33° C | 46% | 1002 hPa | - | - | 0 W/m² | - |
| 1778093505 | 33.89° C | 45% | 1002 hPa | - | - | 0 W/m² | - |
| 1778091656 | 33.89° C | 45% | 1002 hPa | - | - | 0 W/m² | - |
| 1778088882 | 33.89° C | 44% | 1002 hPa | - | - | 0 W/m² | - |
| 1778085183 | 33.89° C | 43% | 1003 hPa | - | - | 0 W/m² | - |
| 1778083334 | 33.89° C | 43% | 1003 hPa | - | - | 0 W/m² | - |
| 1778078710 | 33.89° C | 42% | 1003 hPa | - | - | 0 W/m² | - |
| 1778075012 | 30.56° C | 31% | 1002 hPa | - | - | 0 W/m² | - |
| 1778072239 | 30° C | 33% | 1001 hPa | - | - | 0 W/m² | - |
| 1778070390 | 30° C | 33% | 1001 hPa | - | - | 0 W/m² | - |
| 1778068541 | 30.56° C | 30% | 1001 hPa | - | - | 0 W/m² | - |
| 1778066692 | 30.56° C | 29% | 1000 hPa | - | - | 0 W/m² | - |
| 1778060220 | 30.56° C | 27% | 1000 hPa | - | - | 0 W/m² | - |
| 1778058371 | 30.56° C | 28% | 1000 hPa | - | - | 0 W/m² | - |
| 1778057446 | 31.11° C | 28% | 1000 hPa | - | - | 0 W/m² | - |
| 1778056522 | 31.11° C | 28% | 1000 hPa | - | - | 0 W/m² | - |
| 1778054673 | 31.11° C | 29% | 1001 hPa | - | - | 0 W/m² | - |
| 1778052824 | 30.56° C | 29% | 1001 hPa | - | - | 0 W/m² | - |
* Rain since midnight (hover to see other rain measurements)
** Current wind speed in m/s (hover to see current wind gust speed)